PWSweather.com
Personal Weather Stations
Station Observations
MACKBIG
Historic Main Street, Unionville, ON L3R6A5

Historic Main StreetUnionville, ON L3R6A5

Lat: 43.875506, Lon: -79.312903

Elevation: 590

Station Type: Davis VP2 + 6163

http://www.mackweather.com

Latest ConditionsUpdated 2:50:10 PM EST Sunday, Nov 19, 2017
Currently Today's Max Today's Min Today's Average
Temperature 36.2°F2.3°C 38.8°F3.8°C 32.2°F0.1°C 34.5°F1.4°C
Dew Point 28.7°F-1.8°C 37.2°F2.9°C 28.6°F-1.9°C 31.4°F-0.3°C
Winds 10.0 mph WNW16.1 kmh WNW 14.0 mph NW22.5 kmh NW - 8.6 mph 13.8 kmh
Wind Gusts 13.0 mph20.9 kmh 24.0 mph38.6 kmh - -
Humidity 74% 94% 73% 89%
Pressure 29.63 in1003.4 mb 29.63 in1003.4 mb 29.14 in986.8 mb -
Precipitation - 0.13 in3.3 mm - -
Hour Temp Dew Point Humidity Winds Wind Gusts Pressure Precip Precip Rate Daily Precip Total
02:50 PM 36.2°F2.3°C 28.7°F-1.8°C 74% 10.0 mph WNW16.1 kmh WNW 13.0 mph20.9 kmh 29.63 in1003.4 mb - 0.00 in0.0 mm 0.13 in3.3 mm
02:40 PM 36.4°F2.4°C 28.6°F-1.9°C 73% 9.0 mph W14.5 kmh W 16.0 mph25.7 kmh 29.63 in1003.4 mb - 0.00 in0.0 mm 0.13 in3.3 mm
02:30 PM 36.5°F2.5°C 29.0°F-1.7°C 74% 7.0 mph WNW11.3 kmh WNW 12.0 mph19.3 kmh 29.63 in1003.4 mb - 0.00 in0.0 mm 0.13 in3.3 mm
02:20 PM 36.6°F2.6°C 29.1°F-1.6°C 74% 8.0 mph WNW12.9 kmh WNW 12.0 mph19.3 kmh 29.63 in1003.4 mb - 0.00 in0.0 mm 0.13 in3.3 mm
02:10 PM 36.6°F2.6°C 29.1°F-1.6°C 74% 9.0 mph NW14.5 kmh NW 21.0 mph33.8 kmh 29.63 in1003.4 mb - 0.00 in0.0 mm 0.13 in3.3 mm
02:00 PM 37.0°F2.8°C 29.5°F-1.4°C 74% 9.0 mph NW14.5 kmh NW 12.0 mph19.3 kmh 29.62 in1003.0 mb - 0.00 in0.0 mm 0.13 in3.3 mm
01:50 PM 37.4°F3.0°C 30.5°F-0.8°C 76% 10.0 mph NW16.1 kmh NW 16.0 mph25.7 kmh 29.62 in1003.0 mb - 0.00 in0.0 mm 0.13 in3.3 mm
01:40 PM 37.0°F2.8°C 30.1°F-1.1°C 76% 8.0 mph NW12.9 kmh NW 12.0 mph19.3 kmh 29.62 in1003.0 mb - 0.00 in0.0 mm 0.13 in3.3 mm
01:30 PM 37.0°F2.8°C 30.1°F-1.1°C 76% 12.0 mph NW19.3 kmh NW 12.0 mph19.3 kmh 29.62 in1003.0 mb - 0.00 in0.0 mm 0.13 in3.3 mm
01:20 PM 37.1°F2.8°C 30.2°F-1.0°C 76% 9.0 mph NW14.5 kmh NW 13.0 mph20.9 kmh 29.62 in1003.0 mb - 0.00 in0.0 mm 0.13 in3.3 mm
01:10 PM 37.4°F3.0°C 30.6°F-0.8°C 76% 13.0 mph NW20.9 kmh NW 17.0 mph27.4 kmh 29.61 in1002.7 mb - 0.00 in0.0 mm 0.13 in3.3 mm
01:00 PM 37.6°F3.1°C 31.0°F-0.6°C 77% 9.0 mph NW14.5 kmh NW 14.0 mph22.5 kmh 29.61 in1002.7 mb - 0.00 in0.0 mm 0.13 in3.3 mm
12:50 PM 37.2°F2.9°C 30.7°F-0.7°C 77% 13.0 mph NW20.9 kmh NW 21.0 mph33.8 kmh 29.61 in1002.7 mb - 0.00 in0.0 mm 0.13 in3.3 mm
12:40 PM 37.0°F2.8°C 31.1°F-0.5°C 79% 8.0 mph WNW12.9 kmh WNW 16.0 mph25.7 kmh 29.61 in1002.7 mb - 0.01 in0.3 mm 0.13 in3.3 mm
12:30 PM 37.0°F2.8°C 31.1°F-0.5°C 79% 9.0 mph WNW14.5 kmh WNW 18.0 mph29.0 kmh 29.61 in1002.7 mb - 0.00 in0.0 mm 0.12 in3.0 mm
12:20 PM 36.9°F2.7°C 31.6°F-0.2°C 81% 13.0 mph NW20.9 kmh NW 22.0 mph35.4 kmh 29.61 in1002.7 mb - 0.00 in0.0 mm 0.12 in3.0 mm
12:10 PM 36.7°F2.6°C 31.7°F-0.2°C 82% 10.0 mph NW16.1 kmh NW 23.0 mph37.0 kmh 29.61 in1002.7 mb - 0.00 in0.0 mm 0.12 in3.0 mm
12:00 PM 36.7°F2.6°C 32.0°F0.0°C 83% 7.0 mph WNW11.3 kmh WNW 15.0 mph24.1 kmh 29.61 in1002.7 mb - 0.00 in0.0 mm 0.12 in3.0 mm
11:50 AM 36.5°F2.5°C 32.1°F0.1°C 84% 10.0 mph W16.1 kmh W 13.0 mph20.9 kmh 29.60 in1002.4 mb - 0.00 in0.0 mm 0.12 in3.0 mm
11:40 AM 36.3°F2.4°C 32.5°F0.3°C 86% 13.0 mph WNW20.9 kmh WNW 20.0 mph32.2 kmh 29.60 in1002.4 mb - 0.00 in0.0 mm 0.12 in3.0 mm
11:30 AM 35.9°F2.2°C 32.7°F0.4°C 88% 14.0 mph NW22.5 kmh NW 17.0 mph27.4 kmh 29.60 in1002.4 mb - 0.01 in0.3 mm 0.12 in3.0 mm
11:20 AM 35.9°F2.2°C 33.5°F0.8°C 91% 8.0 mph NNW12.9 kmh NNW 12.0 mph19.3 kmh 29.60 in1002.4 mb - 0.01 in0.3 mm 0.11 in2.8 mm
11:10 AM 35.2°F1.8°C 32.8°F0.4°C 91% 8.0 mph WNW12.9 kmh WNW 8.0 mph12.9 kmh 29.60 in1002.4 mb - 0.01 in0.3 mm 0.10 in2.5 mm
11:00 AM 34.8°F1.6°C 32.7°F0.4°C 92% 5.0 mph NW8.0 kmh NW 8.0 mph12.9 kmh 29.60 in1002.4 mb - 0.02 in0.5 mm 0.09 in2.3 mm
10:50 AM 34.4°F1.3°C 32.3°F0.2°C 92% 9.0 mph NW14.5 kmh NW 13.0 mph20.9 kmh 29.59 in1002.0 mb - 0.02 in0.5 mm 0.08 in2.0 mm
10:40 AM 33.9°F1.1°C 31.8°F-0.1°C 92% 8.0 mph NW12.9 kmh NW 12.0 mph19.3 kmh 29.59 in1002.0 mb - 0.02 in0.5 mm 0.07 in1.8 mm
10:30 AM 33.5°F0.8°C 31.4°F-0.3°C 92% 9.0 mph WNW14.5 kmh WNW 13.0 mph20.9 kmh 29.58 in1001.7 mb - 0.00 in0.0 mm 0.06 in1.5 mm
10:20 AM 33.4°F0.8°C 31.3°F-0.4°C 92% 9.0 mph NW14.5 kmh NW 18.0 mph29.0 kmh 29.58 in1001.7 mb - 0.00 in0.0 mm 0.06 in1.5 mm
10:10 AM 33.4°F0.8°C 31.3°F-0.4°C 92% 8.0 mph NNW12.9 kmh NNW 16.0 mph25.7 kmh 29.58 in1001.7 mb - 0.00 in0.0 mm 0.06 in1.5 mm
10:00 AM 33.3°F0.7°C 31.2°F-0.4°C 92% 3.0 mph NW4.8 kmh NW 6.0 mph9.7 kmh 29.57 in1001.4 mb - 0.00 in0.0 mm 0.06 in1.5 mm
09:50 AM 33.3°F0.7°C 31.2°F-0.4°C 92% 2.0 mph NW3.2 kmh NW 2.0 mph3.2 kmh 29.57 in1001.4 mb - 0.00 in0.0 mm 0.06 in1.5 mm
09:40 AM 33.3°F0.7°C 31.2°F-0.4°C 92% Calm Calm -- 29.56 in1001.0 mb - 0.00 in0.0 mm 0.06 in1.5 mm
09:30 AM 33.3°F0.7°C 31.2°F-0.4°C 92% 6.0 mph NW9.7 kmh NW 8.0 mph12.9 kmh 29.56 in1001.0 mb - 0.00 in0.0 mm 0.06 in1.5 mm
09:20 AM 33.2°F0.7°C 30.9°F-0.6°C 91% 5.0 mph NW8.0 kmh NW 9.0 mph14.5 kmh 29.55 in1000.7 mb - 0.00 in0.0 mm 0.06 in1.5 mm
09:10 AM 33.2°F0.7°C 30.9°F-0.6°C 91% 6.0 mph NW9.7 kmh NW 10.0 mph16.1 kmh 29.55 in1000.7 mb - 0.00 in0.0 mm 0.06 in1.5 mm
09:00 AM 33.3°F0.7°C 31.0°F-0.6°C 91% 6.0 mph NW9.7 kmh NW 9.0 mph14.5 kmh 29.55 in1000.7 mb - 0.00 in0.0 mm 0.06 in1.5 mm
08:50 AM 33.2°F0.7°C 30.9°F-0.6°C 91% 3.0 mph NW4.8 kmh NW 12.0 mph19.3 kmh 29.54 in1000.3 mb - 0.00 in0.0 mm 0.06 in1.5 mm
08:40 AM 33.1°F0.6°C 30.5°F-0.8°C 90% Calm Calm -- 29.54 in1000.3 mb - 0.00 in0.0 mm 0.06 in1.5 mm
08:30 AM 33.0°F0.6°C 30.4°F-0.9°C 90% 6.0 mph NW9.7 kmh NW 8.0 mph12.9 kmh 29.53 in1000.0 mb - 0.00 in0.0 mm 0.06 in1.5 mm
08:20 AM 33.0°F0.6°C 30.1°F-1.1°C 89% 6.0 mph NW9.7 kmh NW 12.0 mph19.3 kmh 29.53 in1000.0 mb - 0.00 in0.0 mm 0.06 in1.5 mm
08:10 AM 32.9°F0.5°C 30.0°F-1.1°C 89% 8.0 mph NW12.9 kmh NW 13.0 mph20.9 kmh 29.52 in999.7 mb - 0.00 in0.0 mm 0.06 in1.5 mm
08:00 AM 32.8°F0.4°C 29.9°F-1.2°C 89% 8.0 mph NW12.9 kmh NW 12.0 mph19.3 kmh 29.52 in999.7 mb - 0.00 in0.0 mm 0.06 in1.5 mm
07:50 AM 32.7°F0.4°C 29.8°F-1.2°C 89% 7.0 mph NW11.3 kmh NW 12.0 mph19.3 kmh 29.51 in999.3 mb - 0.00 in0.0 mm 0.06 in1.5 mm
07:40 AM 32.6°F0.3°C 29.7°F-1.3°C 89% 6.0 mph NW9.7 kmh NW 9.0 mph14.5 kmh 29.51 in999.3 mb - 0.00 in0.0 mm 0.06 in1.5 mm
07:30 AM 32.5°F0.3°C 29.3°F-1.5°C 88% 7.0 mph NW11.3 kmh NW 12.0 mph19.3 kmh 29.50 in999.0 mb - 0.00 in0.0 mm 0.06 in1.5 mm
07:20 AM 32.3°F0.2°C 29.1°F-1.6°C 88% 8.0 mph NW12.9 kmh NW 13.0 mph20.9 kmh 29.49 in998.6 mb 0.00 in0.0 mm 0.00 in0.0 mm 0.06 in1.5 mm
07:10 AM 32.3°F0.2°C 29.1°F-1.6°C 88% 9.0 mph NW14.5 kmh NW 13.0 mph20.9 kmh 29.48 in998.3 mb 0.00 in0.0 mm 0.00 in0.0 mm 0.06 in1.5 mm
07:00 AM 32.2°F0.1°C 29.0°F-1.7°C 88% 9.0 mph NW14.5 kmh NW 17.0 mph27.4 kmh 29.47 in998.0 mb 0.00 in0.0 mm 0.00 in0.0 mm 0.06 in1.5 mm
06:50 AM 32.3°F0.2°C 29.1°F-1.6°C 88% 6.0 mph NW9.7 kmh NW 9.0 mph14.5 kmh 29.47 in998.0 mb 0.00 in0.0 mm 0.00 in0.0 mm 0.06 in1.5 mm
06:40 AM 32.3°F0.2°C 29.1°F-1.6°C 88% 7.0 mph NW11.3 kmh NW 12.0 mph19.3 kmh 29.46 in997.6 mb 0.00 in0.0 mm 0.00 in0.0 mm 0.06 in1.5 mm
06:30 AM 32.5°F0.3°C 29.3°F-1.5°C 88% 7.0 mph NNW11.3 kmh NNW 12.0 mph19.3 kmh 29.45 in997.3 mb 0.00 in0.0 mm 0.00 in0.0 mm 0.06 in1.5 mm
06:20 AM 32.5°F0.3°C 29.6°F-1.3°C 89% 10.0 mph NNW16.1 kmh NNW 18.0 mph29.0 kmh 29.45 in997.3 mb 0.00 in0.0 mm 0.00 in0.0 mm 0.06 in1.5 mm
06:10 AM 32.5°F0.3°C 29.6°F-1.3°C 89% 12.0 mph NW19.3 kmh NW 20.0 mph32.2 kmh 29.44 in997.0 mb 0.00 in0.0 mm 0.00 in0.0 mm 0.06 in1.5 mm
06:00 AM 32.6°F0.3°C 29.7°F-1.3°C 89% 10.0 mph NNW16.1 kmh NNW 20.0 mph32.2 kmh 29.43 in996.6 mb 0.00 in0.0 mm 0.00 in0.0 mm 0.06 in1.5 mm
05:50 AM 32.7°F0.4°C 30.1°F-1.1°C 90% 7.0 mph NW11.3 kmh NW 8.0 mph12.9 kmh 29.42 in996.3 mb 0.00 in0.0 mm 0.00 in0.0 mm 0.06 in1.5 mm
05:40 AM 32.7°F0.4°C 30.1°F-1.1°C 90% 12.0 mph NNW19.3 kmh NNW 17.0 mph27.4 kmh 29.42 in996.3 mb 0.00 in0.0 mm 0.00 in0.0 mm 0.06 in1.5 mm
05:30 AM 32.8°F0.4°C 30.2°F-1.0°C 90% 13.0 mph NNW20.9 kmh NNW 20.0 mph32.2 kmh 29.40 in995.6 mb 0.00 in0.0 mm 0.00 in0.0 mm 0.06 in1.5 mm
05:20 AM 33.0°F0.6°C 30.7°F-0.7°C 91% 10.0 mph NW16.1 kmh NW 24.0 mph38.6 kmh 29.39 in995.3 mb 0.00 in0.0 mm 0.00 in0.0 mm 0.06 in1.5 mm
05:10 AM 33.2°F0.7°C 31.1°F-0.5°C 92% 9.0 mph NW14.5 kmh NW 20.0 mph32.2 kmh 29.38 in994.9 mb 0.00 in0.0 mm 0.00 in0.0 mm 0.06 in1.5 mm
05:00 AM 33.2°F0.7°C 31.2°F-0.4°C 92% 14.0 mph NW22.5 kmh NW 20.0 mph32.2 kmh 29.37 in994.6 mb 0.00 in0.0 mm 0.00 in0.0 mm 0.06 in1.5 mm
04:50 AM 33.2°F0.7°C 31.1°F-0.5°C 92% 10.0 mph NW16.1 kmh NW 18.0 mph29.0 kmh 29.36 in994.2 mb 0.00 in0.0 mm 0.00 in0.0 mm 0.06 in1.5 mm
04:40 AM 33.0°F0.6°C 31.2°F-0.4°C 93% 12.0 mph NW19.3 kmh NW 20.0 mph32.2 kmh 29.35 in993.9 mb 0.00 in0.0 mm 0.00 in0.0 mm 0.06 in1.5 mm
04:30 AM 33.0°F0.6°C 31.2°F-0.4°C 93% 12.0 mph NW19.3 kmh NW 22.0 mph35.4 kmh 29.34 in993.6 mb 0.00 in0.0 mm 0.00 in0.0 mm 0.06 in1.5 mm
04:20 AM 33.0°F0.6°C 31.2°F-0.4°C 93% 8.0 mph NW12.9 kmh NW 13.0 mph20.9 kmh 29.33 in993.2 mb 0.00 in0.0 mm 0.00 in0.0 mm 0.06 in1.5 mm
04:10 AM 32.8°F0.4°C 31.0°F-0.6°C 93% 8.0 mph NW12.9 kmh NW 12.0 mph19.3 kmh 29.32 in992.9 mb 0.00 in0.0 mm 0.00 in0.0 mm 0.06 in1.5 mm
04:00 AM 32.8°F0.4°C 31.0°F-0.6°C 93% 12.0 mph NW19.3 kmh NW 17.0 mph27.4 kmh 29.31 in992.6 mb 0.00 in0.0 mm 0.00 in0.0 mm 0.06 in1.5 mm
03:50 AM 32.9°F0.5°C 31.1°F-0.5°C 93% 10.0 mph NW16.1 kmh NW 15.0 mph24.1 kmh 29.30 in992.2 mb 0.00 in0.0 mm 0.00 in0.0 mm 0.06 in1.5 mm
03:40 AM 33.0°F0.6°C 31.5°F-0.3°C 94% 9.0 mph NW14.5 kmh NW 17.0 mph27.4 kmh 29.29 in991.9 mb 0.00 in0.0 mm 0.00 in0.0 mm 0.06 in1.5 mm
03:30 AM 33.0°F0.6°C 31.5°F-0.3°C 94% 9.0 mph NW14.5 kmh NW 14.0 mph22.5 kmh 29.28 in991.5 mb 0.00 in0.0 mm 0.00 in0.0 mm 0.06 in1.5 mm
03:20 AM 33.0°F0.6°C 31.5°F-0.3°C 94% 8.0 mph NNW12.9 kmh NNW 13.0 mph20.9 kmh 29.27 in991.2 mb 0.00 in0.0 mm 0.00 in0.0 mm 0.06 in1.5 mm
03:10 AM 33.4°F0.8°C 31.6°F-0.2°C 93% 13.0 mph NW20.9 kmh NW 16.0 mph25.7 kmh 29.26 in990.9 mb 0.00 in0.0 mm 0.00 in0.0 mm 0.06 in1.5 mm
03:00 AM 33.7°F0.9°C 32.2°F0.1°C 94% 10.0 mph NW16.1 kmh NW 17.0 mph27.4 kmh 29.25 in990.5 mb 0.00 in0.0 mm 0.00 in0.0 mm 0.06 in1.5 mm
02:50 AM 33.8°F1.0°C 32.3°F0.2°C 94% 7.0 mph NW11.3 kmh NW 12.0 mph19.3 kmh 29.24 in990.2 mb 0.01 in0.3 mm 0.06 in1.5 mm 0.06 in1.5 mm
02:40 AM 33.9°F1.1°C 32.4°F0.2°C 94% 9.0 mph NNW14.5 kmh NNW 14.0 mph22.5 kmh 29.22 in989.5 mb 0.00 in0.0 mm 0.00 in0.0 mm 0.05 in1.3 mm
02:30 AM 34.0°F1.1°C 32.5°F0.3°C 94% 10.0 mph NW16.1 kmh NW 17.0 mph27.4 kmh 29.21 in989.2 mb 0.00 in0.0 mm 0.00 in0.0 mm 0.05 in1.3 mm
02:20 AM 34.1°F1.2°C 32.6°F0.3°C 94% 9.0 mph NW14.5 kmh NW 17.0 mph27.4 kmh 29.21 in989.2 mb 0.00 in0.0 mm 0.00 in0.0 mm 0.05 in1.3 mm
02:10 AM 34.0°F1.1°C 32.5°F0.3°C 94% 7.0 mph WNW11.3 kmh WNW 14.0 mph22.5 kmh 29.20 in988.8 mb 0.00 in0.0 mm 0.00 in0.0 mm 0.05 in1.3 mm
02:00 AM 34.2°F1.2°C 32.7°F0.4°C 94% 14.0 mph NW22.5 kmh NW 21.0 mph33.8 kmh 29.18 in988.1 mb 0.01 in0.3 mm 0.01 in0.3 mm 0.05 in1.3 mm
01:50 AM 34.6°F1.4°C 33.1°F0.6°C 94% 12.0 mph NW19.3 kmh NW 18.0 mph29.0 kmh 29.17 in987.8 mb 0.00 in0.0 mm 0.00 in0.0 mm 0.04 in1.0 mm
01:40 AM 34.8°F1.6°C 33.2°F0.7°C 94% 13.0 mph NW20.9 kmh NW 20.0 mph32.2 kmh 29.16 in987.5 mb 0.00 in0.0 mm 0.00 in0.0 mm 0.04 in1.0 mm
01:30 AM 34.9°F1.6°C 33.3°F0.7°C 94% 9.0 mph NW14.5 kmh NW 13.0 mph20.9 kmh 29.16 in987.5 mb 0.00 in0.0 mm 0.00 in0.0 mm 0.04 in1.0 mm
01:20 AM 35.0°F1.7°C 33.4°F0.8°C 94% 8.0 mph NNW12.9 kmh NNW 12.0 mph19.3 kmh 29.16 in987.5 mb 0.00 in0.0 mm 0.00 in0.0 mm 0.04 in1.0 mm
01:10 AM 35.2°F1.8°C 33.6°F0.9°C 94% 9.0 mph NW14.5 kmh NW 15.0 mph24.1 kmh 29.16 in987.5 mb 0.01 in0.3 mm 0.06 in1.5 mm 0.04 in1.0 mm
01:00 AM 35.6°F2.0°C 34.0°F1.1°C 94% 7.0 mph NW11.3 kmh NW 15.0 mph24.1 kmh 29.16 in987.5 mb 0.00 in0.0 mm 0.00 in0.0 mm 0.03 in0.8 mm
12:50 AM 36.2°F2.3°C 34.6°F1.4°C 94% 10.0 mph NW16.1 kmh NW 21.0 mph33.8 kmh 29.16 in987.5 mb 0.02 in0.5 mm 0.12 in3.0 mm 0.03 in0.8 mm
12:40 AM 37.1°F2.8°C 35.6°F2.0°C 94% 8.0 mph NW12.9 kmh NW 20.0 mph32.2 kmh 29.16 in987.5 mb 0.00 in0.0 mm 0.00 in0.0 mm 0.02 in0.5 mm
12:31 AM 37.7°F3.2°C 36.1°F2.3°C 94% 7.0 mph NNW11.3 kmh NNW 10.0 mph16.1 kmh 29.15 in987.1 mb 0.01 in0.3 mm 0.06 in1.5 mm 0.02 in0.5 mm
12:21 AM 38.2°F3.4°C 36.6°F2.6°C 94% 8.0 mph N12.9 kmh N 17.0 mph27.4 kmh 29.14 in986.8 mb 0.00 in0.0 mm 0.00 in0.0 mm 0.01 in0.3 mm
12:10 AM 38.6°F3.7°C 37.0°F2.8°C 94% 7.0 mph NW11.3 kmh NW 16.0 mph25.7 kmh 29.15 in987.1 mb 0.01 in0.3 mm 0.00 in0.0 mm 0.01 in0.3 mm
12:00 AM 38.8°F3.8°C 37.2°F2.9°C 94% 6.0 mph NNW9.7 kmh NNW 10.0 mph16.1 kmh 29.14 in986.8 mb 0.02 in0.5 mm 0.00 in0.0 mm 0.02 in0.5 mm